createdAt,value
2018-12-25T00:00:50.118Z,22.62
2018-12-25T00:03:19.879Z,30.88
2018-12-25T00:05:50.021Z,31.82
2018-12-25T00:08:19.819Z,29.52
2018-12-25T00:10:49.898Z,28.00
2018-12-25T00:13:19.832Z,29.87
2018-12-25T00:15:49.755Z,29.37
2018-12-25T00:18:19.726Z,32.13
2018-12-25T00:20:49.535Z,30.68
2018-12-25T00:23:19.730Z,33.28
2018-12-25T00:25:49.526Z,35.33
2018-12-25T00:28:19.545Z,37.88
2018-12-25T00:30:49.956Z,48.60
2018-12-25T00:33:19.923Z,34.30
2018-12-25T00:35:49.839Z,24.27
2018-12-25T00:38:19.780Z,25.17
2018-12-25T00:40:50.030Z,27.00
2018-12-25T00:43:19.651Z,22.45
2018-12-25T00:45:49.517Z,16.75
2018-12-25T00:48:19.734Z,26.70
2018-12-25T00:50:50.071Z,22.82
2018-12-25T00:53:20.539Z,28.75
2018-12-25T00:55:50.409Z,28.35
2018-12-25T00:58:20.696Z,25.85
2018-12-25T01:00:50.689Z,22.48
2018-12-25T01:03:20.390Z,26.35
2018-12-25T01:05:50.447Z,27.05
2018-12-25T01:08:20.369Z,25.65
2018-12-25T01:10:50.697Z,32.25
2018-12-25T01:13:20.593Z,31.35
2018-12-25T01:15:50.748Z,26.15
2018-12-25T01:18:20.629Z,22.15
2018-12-25T01:20:50.765Z,23.95
2018-12-25T01:23:20.720Z,30.65
2018-12-25T01:25:50.352Z,28.95
2018-12-25T01:28:20.357Z,27.37
2018-12-25T01:30:50.202Z,28.62
2018-12-25T01:33:20.297Z,22.73
2018-12-25T01:35:50.349Z,23.62
2018-12-25T01:38:20.586Z,27.48
2018-12-25T01:40:51.160Z,25.23
2018-12-25T01:43:20.990Z,23.07
2018-12-25T01:45:50.851Z,24.47
2018-12-25T01:48:20.949Z,17.60
2018-12-25T01:50:50.863Z,16.90
2018-12-25T01:53:21.094Z,23.73
2018-12-25T01:55:51.230Z,20.45
2018-12-25T01:58:21.303Z,16.75
2018-12-25T02:00:51.414Z,17.10
2018-12-25T02:03:21.537Z,19.65
2018-12-25T02:05:51.631Z,15.90
2018-12-25T02:08:21.818Z,14.53
2018-12-25T02:10:51.850Z,14.03
2018-12-25T02:13:22.330Z,14.55
2018-12-25T02:15:52.492Z,16.05
2018-12-25T02:18:22.635Z,14.25
2018-12-25T02:20:52.709Z,15.83
2018-12-25T02:23:22.962Z,21.97
2018-12-25T02:25:53.174Z,18.25
2018-12-25T02:28:23.304Z,22.37
2018-12-25T02:30:53.000Z,20.92
2018-12-25T02:33:22.830Z,23.47
2018-12-25T02:35:52.997Z,24.72
2018-12-25T02:38:23.182Z,30.95
2018-12-25T02:40:53.302Z,26.70
2018-12-25T02:43:23.390Z,22.67
2018-12-25T02:45:53.341Z,21.40
2018-12-25T02:48:24.767Z,21.27
2018-12-25T02:50:54.907Z,21.05
2018-12-25T02:53:24.784Z,15.72
2018-12-25T02:55:54.794Z,15.60
2018-12-25T02:58:24.915Z,23.65
2018-12-25T03:00:55.008Z,17.90
2018-12-25T03:03:25.043Z,14.07
2018-12-25T03:05:55.035Z,17.70
2018-12-25T03:08:25.519Z,16.90
2018-12-25T03:10:55.707Z,14.45
2018-12-25T03:13:25.604Z,14.75
2018-12-25T03:15:55.552Z,15.50
2018-12-25T03:18:25.875Z,14.05
2018-12-25T03:20:56.306Z,18.30
2018-12-25T03:23:26.151Z,21.10
2018-12-25T03:25:56.374Z,27.45
2018-12-25T03:28:26.452Z,16.95
2018-12-25T03:30:56.687Z,14.35
2018-12-25T03:33:26.552Z,21.20
2018-12-25T03:35:56.212Z,15.05
2018-12-25T03:38:25.827Z,17.45
2018-12-25T03:40:55.640Z,23.38
2018-12-25T03:43:25.575Z,15.40
2018-12-25T03:45:55.718Z,13.68
2018-12-25T03:48:25.840Z,17.50
2018-12-25T03:50:55.939Z,13.80
2018-12-25T03:53:28.958Z,15.45
2018-12-25T03:55:58.541Z,15.65
2018-12-25T03:58:28.754Z,12.78
2018-12-25T04:00:58.359Z,13.13
2018-12-25T04:03:28.115Z,14.58
2018-12-25T04:05:58.376Z,19.67
2018-12-25T04:08:28.454Z,20.75
2018-12-25T04:10:58.520Z,30.12
2018-12-25T04:13:28.402Z,25.55
2018-12-25T04:15:58.609Z,25.10
2018-12-25T04:18:28.631Z,27.77
2018-12-25T04:20:58.830Z,17.90
2018-12-25T04:23:33.246Z,20.45
2018-12-25T04:26:03.320Z,26.15
2018-12-25T04:28:33.403Z,15.05
2018-12-25T04:31:05.246Z,18.70
2018-12-25T04:33:35.035Z,17.45
2018-12-25T04:36:05.237Z,12.58
2018-12-25T04:38:35.322Z,12.00
2018-12-25T04:41:05.543Z,13.18
2018-12-25T04:43:35.555Z,21.20
2018-12-25T04:46:05.205Z,22.70
2018-12-25T04:48:35.155Z,30.25
2018-12-25T04:51:05.355Z,19.67
2018-12-25T04:53:36.737Z,24.07
2018-12-25T04:56:07.052Z,26.30
2018-12-25T04:58:36.919Z,21.05
2018-12-25T05:01:06.646Z,26.15
2018-12-25T05:03:36.774Z,28.17
2018-12-25T05:06:07.120Z,30.23
2018-12-25T05:08:36.723Z,24.07
2018-12-25T05:11:06.519Z,24.65
2018-12-25T05:13:36.611Z,33.75
2018-12-25T05:16:06.900Z,42.58
2018-12-25T05:18:37.167Z,35.45
2018-12-25T05:21:07.067Z,32.70
2018-12-25T05:23:37.028Z,29.57
2018-12-25T05:26:07.434Z,24.12
2018-12-25T05:28:37.730Z,28.05
2018-12-25T05:31:07.641Z,24.72
2018-12-25T05:33:37.499Z,26.50
2018-12-25T05:36:07.589Z,24.92
2018-12-25T05:38:37.716Z,23.75
2018-12-25T05:41:07.678Z,23.50
2018-12-25T05:43:37.558Z,24.90
2018-12-25T05:46:07.763Z,22.30
2018-12-25T05:48:38.116Z,27.00
2018-12-25T05:51:07.715Z,24.40
2018-12-25T05:53:37.562Z,26.00
2018-12-25T05:56:07.481Z,21.95
2018-12-25T05:58:37.275Z,20.95
2018-12-25T06:01:07.007Z,22.90
2018-12-25T06:03:36.686Z,18.98
2018-12-25T06:06:07.125Z,25.48
2018-12-25T06:08:36.935Z,26.25
2018-12-25T06:11:06.827Z,24.52
2018-12-25T06:13:36.550Z,23.05
2018-12-25T06:16:06.474Z,21.87
2018-12-25T06:18:36.351Z,21.82
2018-12-25T06:21:06.323Z,23.00
2018-12-25T06:23:36.482Z,22.37
2018-12-25T06:26:06.532Z,22.60
2018-12-25T06:28:36.675Z,23.02
2018-12-25T06:31:06.572Z,22.67
2018-12-25T06:33:36.660Z,21.48
2018-12-25T06:36:07.019Z,22.62
2018-12-25T06:38:37.175Z,24.10
2018-12-25T06:41:06.994Z,25.02
2018-12-25T06:43:36.974Z,21.33
2018-12-25T06:46:07.115Z,27.25
2018-12-25T06:48:37.186Z,25.88
2018-12-25T06:51:07.072Z,25.80
2018-12-25T06:53:37.036Z,26.57
2018-12-25T06:56:07.176Z,23.32
2018-12-25T06:58:37.283Z,21.90
2018-12-25T07:01:07.143Z,19.52
2018-12-25T07:03:37.280Z,20.68
2018-12-25T07:06:07.517Z,26.95
2018-12-25T07:08:37.350Z,21.90
2018-12-25T07:11:07.479Z,19.45
2018-12-25T07:13:37.098Z,22.85
2018-12-25T07:16:07.230Z,22.52
2018-12-25T07:18:37.186Z,20.30
2018-12-25T07:21:12.125Z,31.02
2018-12-25T07:23:38.842Z,24.70
2018-12-25T07:26:09.018Z,21.90
2018-12-25T07:28:39.055Z,24.55
2018-12-25T07:31:16.294Z,21.35
2018-12-25T07:33:46.145Z,21.23
2018-12-25T07:36:16.264Z,22.60
2018-12-25T07:38:46.335Z,22.17
2018-12-25T07:41:16.588Z,21.20
2018-12-25T07:43:46.530Z,19.80
2018-12-25T07:46:17.330Z,23.67
2018-12-25T07:48:47.427Z,26.97
2018-12-25T07:51:20.905Z,32.98
2018-12-25T07:53:49.331Z,25.08
2018-12-25T07:56:19.434Z,26.10
2018-12-25T07:58:49.847Z,22.73
2018-12-25T08:01:20.041Z,21.62
2018-12-25T08:03:50.210Z,23.40
2018-12-25T08:06:20.303Z,18.50
2018-12-25T08:08:49.953Z,17.30
2018-12-25T08:11:20.126Z,17.57
2018-12-25T08:13:50.503Z,17.17
2018-12-25T08:16:20.649Z,14.83
2018-12-25T08:18:50.770Z,14.78
2018-12-25T08:21:29.070Z,13.88
2018-12-25T08:23:52.622Z,17.05
2018-12-25T08:26:22.649Z,18.40
2018-12-25T08:28:52.510Z,20.65
2018-12-25T08:31:22.219Z,16.50
2018-12-25T08:33:52.231Z,21.02
2018-12-25T08:36:22.602Z,39.53
2018-12-25T08:38:52.682Z,20.90
2018-12-25T08:41:22.763Z,20.50
2018-12-25T08:43:53.102Z,21.93
2018-12-25T08:46:23.494Z,18.80
2018-12-25T08:48:53.666Z,16.67
2018-12-25T08:51:23.672Z,18.45
2018-12-25T08:53:53.882Z,16.45
2018-12-25T08:56:24.092Z,17.87
2018-12-25T08:58:54.170Z,13.15
2018-12-25T09:01:24.378Z,15.70
2018-12-25T09:03:55.357Z,13.50
2018-12-25T09:06:25.175Z,13.35
2018-12-25T09:08:55.305Z,12.58
2018-12-25T09:11:25.437Z,13.00
2018-12-25T09:13:55.237Z,13.32
2018-12-25T09:16:24.955Z,13.98
2018-12-25T09:18:57.446Z,14.53
2018-12-25T09:21:27.538Z,13.58
2018-12-25T09:23:57.975Z,14.23
2018-12-25T09:26:28.118Z,15.72
2018-12-25T09:28:58.478Z,17.10
2018-12-25T09:31:28.669Z,15.43
2018-12-25T09:33:58.372Z,15.18
2018-12-25T09:36:28.506Z,14.78
2018-12-25T09:38:58.194Z,12.70
2018-12-25T09:41:28.255Z,14.55
2018-12-25T09:43:58.371Z,14.85
2018-12-25T09:46:28.543Z,14.93
2018-12-25T09:48:58.610Z,15.55
2018-12-25T09:51:33.556Z,15.88
2018-12-25T09:54:02.987Z,17.37
2018-12-25T09:56:33.058Z,17.77
2018-12-25T09:59:03.134Z,19.65
2018-12-25T10:01:33.325Z,16.50
2018-12-25T10:04:03.892Z,16.25
2018-12-25T10:57:56.846Z,20.57
2018-12-25T11:00:25.649Z,12.63
2018-12-25T11:02:56.954Z,27.30
2018-12-25T11:19:32.483Z,15.47
2018-12-25T11:22:08.516Z,15.53
2018-12-25T11:24:37.780Z,17.95
2018-12-25T11:27:10.265Z,13.00
2018-12-25T11:29:42.379Z,12.35
2018-12-25T11:32:11.632Z,23.87
2018-12-25T11:34:43.710Z,12.05
2018-12-25T11:37:12.960Z,11.12
2018-12-25T11:39:49.662Z,12.63
2018-12-25T11:42:20.982Z,13.90
2018-12-25T11:44:50.192Z,18.00
2018-12-25T11:47:21.288Z,10.45
2018-12-25T11:50:08.643Z,13.85
2018-12-25T11:52:38.977Z,11.80
2018-12-25T11:55:11.273Z,12.88
2018-12-25T11:57:40.608Z,12.28
2018-12-25T12:00:12.389Z,11.97
2018-12-25T12:02:45.021Z,12.75
2018-12-25T12:05:14.274Z,11.75
2018-12-25T12:07:58.040Z,14.43
2018-12-25T12:10:27.410Z,12.13
2018-12-25T12:12:59.529Z,14.50
2018-12-25T12:15:28.840Z,11.25
2018-12-25T12:17:58.748Z,10.90
2018-12-25T12:20:28.059Z,9.75
2018-12-25T12:22:59.852Z,11.48
2018-12-25T12:25:29.135Z,12.58
2018-12-25T12:27:59.304Z,12.78
2018-12-25T12:30:28.558Z,16.40
2018-12-25T12:33:01.265Z,30.02
2018-12-25T12:35:42.437Z,12.95
2018-12-25T12:38:14.868Z,11.65
2018-12-25T12:40:46.832Z,10.88
2018-12-25T12:43:16.223Z,10.15
2018-12-25T12:45:48.276Z,9.90
2018-12-25T12:48:17.520Z,10.80
2018-12-25T12:50:49.938Z,11.20
2018-12-25T13:29:24.918Z,2.67
2018-12-25T13:31:54.700Z,2.47
2018-12-25T13:36:50.796Z,7.70
2018-12-25T13:39:24.232Z,7.63
2018-12-25T13:41:55.024Z,8.33
2018-12-25T13:44:28.530Z,9.30
2018-12-25T13:48:35.542Z,9.60
2018-12-25T13:51:05.896Z,10.40
2018-12-25T13:53:38.906Z,10.60
2018-12-25T13:56:08.796Z,9.83
2018-12-25T13:58:42.206Z,9.47
2018-12-25T14:01:14.246Z,11.00
2018-12-25T14:03:48.427Z,15.80
2018-12-25T14:06:18.940Z,10.53
2018-12-25T14:08:51.873Z,9.87
2018-12-25T14:11:26.562Z,10.93
2018-12-25T14:13:56.395Z,11.07
2018-12-25T14:16:27.711Z,10.18
2018-12-25T14:19:01.795Z,10.53
2018-12-25T14:21:31.673Z,11.48
2018-12-25T14:24:03.105Z,12.23
2018-12-25T14:26:32.831Z,11.50
2018-12-25T14:29:06.544Z,11.15
2018-12-25T14:31:38.923Z,11.18
2018-12-25T14:34:08.613Z,12.43
2018-12-25T14:36:39.949Z,11.65
2018-12-25T14:39:12.608Z,11.65
2018-12-25T14:41:42.333Z,12.88
2018-12-25T14:44:14.392Z,13.50
2018-12-25T14:46:44.110Z,12.60
2018-12-25T14:49:15.289Z,13.50
2018-12-25T14:51:49.963Z,13.40
2018-12-25T14:54:18.033Z,12.55
2018-12-25T14:56:50.594Z,11.28
2018-12-25T14:59:20.456Z,12.30
2018-12-25T15:01:53.020Z,13.25
2018-12-25T15:04:30.138Z,13.05
2018-12-25T15:07:02.920Z,13.32
2018-12-25T15:09:32.681Z,13.58
2018-12-25T15:12:04.165Z,12.10
2018-12-25T15:14:36.531Z,13.20
2018-12-25T15:17:07.385Z,12.70
2018-12-25T15:19:40.529Z,12.65
2018-12-25T15:22:14.637Z,13.45
2018-12-25T15:24:44.509Z,12.88
2018-12-25T15:27:17.363Z,13.10
2018-12-25T15:29:50.217Z,12.80
2018-12-25T15:32:19.932Z,12.98
2018-12-25T15:34:52.177Z,13.22
2018-12-25T15:37:24.684Z,14.18
2018-12-25T15:39:54.390Z,12.85
2018-12-25T15:42:27.207Z,13.55
2018-12-25T15:44:56.908Z,15.03
2018-12-25T15:47:28.538Z,13.70
2018-12-25T15:50:01.782Z,14.47
2018-12-25T15:52:31.549Z,14.07
2018-12-25T15:55:03.620Z,12.43
2018-12-25T15:57:37.149Z,13.45
2018-12-25T16:00:14.652Z,14.18
2018-12-25T16:02:44.368Z,13.58
2018-12-25T16:05:15.654Z,13.10
2018-12-25T16:07:49.233Z,12.37
2018-12-25T16:10:18.945Z,13.90
2018-12-25T16:12:51.548Z,15.15
2018-12-25T16:15:21.417Z,12.43
2018-12-25T16:17:53.764Z,23.12
2018-12-25T16:20:26.550Z,16.30
2018-12-25T16:22:56.276Z,17.85
2018-12-25T16:25:27.797Z,14.93
2018-12-25T16:27:57.568Z,14.73
2018-12-25T16:30:30.311Z,13.62
2018-12-25T16:33:02.904Z,14.25
2018-12-25T16:35:32.718Z,15.13
2018-12-25T16:38:05.453Z,17.45
2018-12-25T16:40:39.448Z,21.85
2018-12-25T16:43:09.245Z,14.63
2018-12-25T16:45:40.698Z,15.88
2018-12-25T16:48:13.371Z,13.78
2018-12-25T16:50:43.125Z,15.15
2018-12-25T16:53:15.092Z,17.98
2018-12-25T16:55:44.988Z,14.20
2018-12-25T16:58:17.458Z,14.28
2018-12-25T17:00:49.374Z,15.00
2018-12-25T17:03:19.417Z,16.73
2018-12-25T17:05:51.938Z,16.00
2018-12-25T17:08:25.726Z,17.98
2018-12-25T17:10:55.490Z,15.72
2018-12-25T17:13:28.141Z,21.20
2018-12-25T17:15:57.914Z,17.42
2018-12-25T17:18:33.273Z,17.98
2018-12-25T17:21:05.510Z,16.70
2018-12-25T17:23:38.233Z,18.60
2018-12-25T17:26:07.977Z,15.80
2018-12-25T17:28:40.688Z,17.42
2018-12-25T17:31:13.241Z,18.25
2018-12-25T17:33:42.948Z,17.92
2018-12-25T17:36:15.545Z,16.42
2018-12-25T17:38:45.282Z,19.20
2018-12-25T17:41:16.888Z,18.90
2018-12-25T17:43:49.318Z,17.23
2018-12-25T17:46:19.336Z,16.42
2018-12-25T17:48:53.672Z,16.23
2018-12-25T17:51:25.882Z,18.00
2018-12-25T17:53:55.798Z,18.65
2018-12-25T17:56:37.807Z,17.35
2018-12-25T17:59:19.370Z,17.85
2018-12-25T18:01:51.723Z,16.52
2018-12-25T18:04:21.797Z,19.50
2018-12-25T18:06:53.191Z,20.23
2018-12-25T18:09:25.940Z,20.50
2018-12-25T18:11:55.705Z,23.00
2018-12-25T18:14:28.033Z,20.23
2018-12-25T18:16:57.782Z,20.72
2018-12-25T18:19:29.244Z,18.87
2018-12-25T18:22:02.200Z,20.30
2018-12-25T18:24:32.953Z,20.15
2018-12-25T18:27:06.083Z,20.52
2018-12-25T18:29:39.600Z,19.40
2018-12-25T18:32:09.444Z,19.73
2018-12-25T18:34:42.238Z,21.90
2018-12-25T18:37:15.357Z,21.33
2018-12-25T18:39:54.744Z,21.25
2018-12-25T18:42:27.493Z,22.70
2018-12-25T18:44:57.262Z,19.75
2018-12-25T18:47:28.462Z,19.60
2018-12-25T18:50:02.079Z,19.52
2018-12-25T18:52:31.789Z,19.67
2018-12-25T18:55:04.442Z,21.05
2018-12-25T18:57:34.201Z,20.52
2018-12-25T19:00:10.088Z,20.23
2018-12-25T19:02:41.417Z,19.82
2018-12-25T19:05:13.898Z,20.20
2018-12-25T19:07:43.652Z,21.05
2018-12-25T19:10:17.693Z,20.35
2018-12-25T19:12:49.942Z,23.50
2018-12-25T19:15:21.812Z,19.20
2018-12-25T19:17:55.365Z,19.65
2018-12-25T19:20:27.950Z,21.20
2018-12-25T19:22:57.691Z,20.12
2018-12-25T19:25:28.995Z,19.75
2018-12-25T19:28:03.246Z,20.55
2018-12-25T19:30:32.461Z,20.30
2018-12-25T19:33:05.879Z,21.37
2018-12-25T19:35:37.981Z,34.08
2018-12-25T19:38:07.713Z,24.40
2018-12-25T19:40:41.586Z,21.77
2018-12-25T19:43:14.780Z,21.02
2018-12-25T19:45:44.820Z,21.10
2018-12-25T19:48:18.563Z,20.60
2018-12-25T19:50:51.534Z,24.50
2018-12-25T19:53:21.251Z,30.20
2018-12-25T19:55:54.037Z,21.73
2018-12-25T19:58:26.078Z,21.57
2018-12-25T20:00:55.930Z,19.95
2018-12-25T20:03:46.428Z,25.32
2018-12-25T20:06:51.526Z,21.33
2018-12-25T20:10:16.452Z,21.45
2018-12-25T20:13:22.119Z,20.65
2018-12-25T20:16:08.295Z,22.60
2018-12-25T20:19:27.109Z,22.90
2018-12-25T20:22:52.860Z,21.95
2018-12-25T20:25:40.325Z,20.20
2018-12-25T20:28:56.193Z,22.05
2018-12-25T20:32:04.315Z,18.73
2018-12-25T20:35:05.240Z,20.05
2018-12-25T20:38:15.566Z,19.20
2018-12-25T20:41:16.437Z,19.37
2018-12-25T20:44:29.184Z,21.85
2018-12-25T20:47:32.441Z,20.55
2018-12-25T20:50:39.920Z,19.45
2018-12-25T20:53:56.235Z,18.15
2018-12-25T20:56:54.701Z,19.17
2018-12-25T21:00:09.211Z,16.35
2018-12-25T21:03:17.042Z,17.48
2018-12-25T21:06:27.936Z,16.45
2018-12-25T21:09:39.613Z,15.95
2018-12-25T21:13:03.341Z,19.35
2018-12-25T21:16:32.338Z,16.12
2018-12-25T21:19:44.985Z,15.38
2018-12-25T21:22:54.581Z,15.80
2018-12-25T21:26:02.398Z,25.82
2018-12-25T21:28:34.626Z,14.53
2018-12-25T21:31:07.360Z,18.00
2018-12-25T21:33:39.981Z,16.93
2018-12-25T21:36:09.885Z,15.50
2018-12-25T21:38:42.780Z,16.07
2018-12-25T21:41:17.197Z,15.50
2018-12-25T21:43:52.084Z,17.70
2018-12-25T21:46:19.182Z,16.30
2018-12-25T21:48:51.728Z,18.10
2018-12-25T21:51:21.794Z,17.48
2018-12-25T21:53:54.554Z,16.15
2018-12-25T21:56:31.879Z,16.27
2018-12-25T21:59:04.492Z,14.15
2018-12-25T22:01:34.317Z,16.17
2018-12-25T22:04:06.197Z,15.68
2018-12-25T22:06:39.720Z,16.32
2018-12-25T22:09:09.506Z,16.52
2018-12-25T22:11:43.111Z,16.30
2018-12-25T22:14:16.681Z,15.30
2018-12-25T22:16:46.529Z,16.27
2018-12-25T22:19:17.904Z,16.25
2018-12-25T22:21:51.222Z,15.60
2018-12-25T22:24:21.073Z,17.57
2018-12-25T22:26:54.137Z,15.28
2018-12-25T22:29:26.665Z,16.52
2018-12-25T22:31:56.534Z,16.30
2018-12-25T22:34:33.815Z,14.73
2018-12-25T22:37:07.126Z,14.87
2018-12-25T22:39:40.113Z,15.45
2018-12-25T22:42:09.910Z,15.10
2018-12-25T22:44:42.558Z,15.20
2018-12-25T22:47:14.568Z,18.10
2018-12-25T22:49:44.376Z,15.55
2018-12-25T22:52:16.354Z,17.12
2018-12-25T22:54:46.065Z,16.40
2018-12-25T22:57:19.007Z,18.17
2018-12-25T22:59:51.507Z,16.25
2018-12-25T23:02:21.301Z,16.70
2018-12-25T23:04:53.864Z,18.10
2018-12-25T23:07:26.384Z,17.75
2018-12-25T23:09:56.193Z,16.17
2018-12-25T23:12:29.096Z,18.25
2018-12-25T23:14:58.854Z,16.52
2018-12-25T23:17:30.278Z,17.05
2018-12-25T23:20:03.006Z,17.00
2018-12-25T23:22:32.837Z,18.02
2018-12-25T23:25:05.896Z,18.65
2018-12-25T23:27:38.427Z,17.90
2018-12-25T23:30:08.193Z,18.70
2018-12-25T23:32:41.021Z,17.90
2018-12-25T23:35:14.675Z,17.55
2018-12-25T23:37:44.603Z,16.60
2018-12-25T23:40:21.672Z,18.70
2018-12-25T23:42:55.198Z,16.32
2018-12-25T23:45:27.639Z,16.52
2018-12-25T23:47:57.360Z,17.92
2018-12-25T23:50:30.133Z,16.60
2018-12-25T23:53:02.813Z,16.55
2018-12-25T23:55:32.628Z,17.35
2018-12-25T23:58:09.796Z,17.42
